createdAt,value
2018-05-21T00:01:36.125Z,14.20
2018-05-21T00:04:04.076Z,14.20
2018-05-21T00:06:32.478Z,14.20
2018-05-21T00:09:00.664Z,14.20
2018-05-21T00:11:28.996Z,14.10
2018-05-21T00:13:57.530Z,14.10
2018-05-21T00:16:25.277Z,14.10
2018-05-21T00:18:53.438Z,14.00
2018-05-21T00:21:21.192Z,14.00
2018-05-21T00:23:49.030Z,14.00
2018-05-21T00:26:17.682Z,13.80
2018-05-21T00:28:45.549Z,13.80
2018-05-21T00:31:13.301Z,13.80
2018-05-21T00:33:41.179Z,13.80
2018-05-21T00:36:09.045Z,13.80
2018-05-21T00:38:36.912Z,13.80
2018-05-21T00:41:04.778Z,13.80
2018-05-21T00:43:32.644Z,13.80
2018-05-21T00:46:00.514Z,13.80
2018-05-21T00:48:28.305Z,13.80
2018-05-21T00:50:56.146Z,13.80
2018-05-21T00:53:24.011Z,13.80
2018-05-21T00:55:51.967Z,13.80
2018-05-21T00:58:19.785Z,13.80
2018-05-21T01:00:48.427Z,13.80
2018-05-21T01:03:16.274Z,13.80
2018-05-21T01:05:45.696Z,13.70
2018-05-21T01:08:13.563Z,13.70
2018-05-21T01:10:41.356Z,13.80
2018-05-21T01:13:09.297Z,13.80
2018-05-21T01:15:37.225Z,13.80
2018-05-21T01:18:05.849Z,13.70
2018-05-21T01:20:33.817Z,13.70
2018-05-21T01:23:01.685Z,13.80
2018-05-21T01:25:29.549Z,13.70
2018-05-21T01:27:57.415Z,13.80
2018-05-21T01:30:25.283Z,13.80
2018-05-21T01:32:53.149Z,13.80
2018-05-21T01:35:21.015Z,13.80
2018-05-21T01:37:49.089Z,13.80
2018-05-21T01:40:16.954Z,13.80
2018-05-21T01:42:44.820Z,13.80
2018-05-21T01:45:12.686Z,13.80
2018-05-21T01:47:40.553Z,13.80
2018-05-21T01:50:08.345Z,13.70
2018-05-21T01:52:36.390Z,13.70
2018-05-21T01:55:04.298Z,13.70
2018-05-21T01:57:32.945Z,13.70
2018-05-21T02:00:00.809Z,13.70
2018-05-21T02:02:28.777Z,13.70
2018-05-21T02:04:56.746Z,13.70
2018-05-21T02:07:24.612Z,13.70
2018-05-21T02:09:52.479Z,13.70
2018-05-21T02:12:20.347Z,13.60
2018-05-21T02:14:48.211Z,13.60
2018-05-21T02:17:16.077Z,13.60
2018-05-21T02:19:43.944Z,13.60
2018-05-21T02:22:11.812Z,13.60
2018-05-21T02:24:39.678Z,13.50
2018-05-21T02:27:07.503Z,13.50
2018-05-21T02:29:35.364Z,13.50
2018-05-21T02:32:03.278Z,13.50
2018-05-21T02:34:31.145Z,13.50
2018-05-21T02:36:59.010Z,13.50
2018-05-21T02:39:26.879Z,13.50
2018-05-21T02:41:54.743Z,13.40
2018-05-21T02:44:22.609Z,13.40
2018-05-21T02:46:50.578Z,13.30
2018-05-21T02:49:18.446Z,13.30
2018-05-21T02:51:46.340Z,13.30
2018-05-21T02:54:14.276Z,13.20
2018-05-21T02:56:42.146Z,13.10
2018-05-21T02:59:10.013Z,13.10
2018-05-21T03:01:37.835Z,13.10
2018-05-21T03:04:05.745Z,13.10
2018-05-21T03:06:33.612Z,13.10
2018-05-21T03:09:01.478Z,13.10
2018-05-21T03:11:29.346Z,13.10
2018-05-21T03:13:57.212Z,13.10
2018-05-21T03:16:25.078Z,13.10
2018-05-21T03:18:52.944Z,13.00
2018-05-21T03:21:20.811Z,13.10
2018-05-21T03:23:49.990Z,13.10
2018-05-21T03:26:19.178Z,13.10
2018-05-21T03:28:48.446Z,13.10
2018-05-21T03:31:17.090Z,13.20
2018-05-21T03:33:44.957Z,13.20
2018-05-21T03:36:12.823Z,13.20
2018-05-21T03:38:40.689Z,13.20
2018-05-21T03:41:08.556Z,13.20
2018-05-21T03:43:36.502Z,13.10
2018-05-21T03:46:05.109Z,13.10
2018-05-21T03:48:32.976Z,13.10
2018-05-21T03:51:00.842Z,13.10
2018-05-21T03:53:28.810Z,13.10
2018-05-21T03:55:56.601Z,13.20
2018-05-21T03:58:36.422Z,13.20
2018-05-21T04:01:16.166Z,13.20
2018-05-21T04:03:56.013Z,13.30
2018-05-21T04:06:23.880Z,13.30
2018-05-21T04:08:51.644Z,13.30
2018-05-21T04:11:19.612Z,13.30
2018-05-21T04:13:47.479Z,13.40
2018-05-21T04:16:15.346Z,13.40
2018-05-21T04:18:43.324Z,13.50
2018-05-21T04:21:12.615Z,13.50
2018-05-21T04:23:40.482Z,13.50
2018-05-21T04:26:08.246Z,13.60
2018-05-21T04:28:36.112Z,13.60
2018-05-21T04:31:03.906Z,13.70
2018-05-21T04:33:31.742Z,13.70
2018-05-21T04:35:59.609Z,13.70
2018-05-21T04:38:27.475Z,13.80
2018-05-21T04:40:55.343Z,13.80
2018-05-21T04:43:23.209Z,13.80
2018-05-21T04:45:51.077Z,13.90
2018-05-21T04:48:18.942Z,13.90
2018-05-21T04:50:46.808Z,13.90
2018-05-21T04:53:14.681Z,14.00
2018-05-21T04:55:42.540Z,14.00
2018-05-21T04:58:10.407Z,14.10
2018-05-21T05:00:38.273Z,14.20
2018-05-21T05:03:06.143Z,14.20
2018-05-21T05:05:34.036Z,14.30
2018-05-21T05:08:01.976Z,14.30
2018-05-21T05:10:29.842Z,14.30
2018-05-21T05:12:57.633Z,14.40
2018-05-21T05:15:25.580Z,14.30
2018-05-21T05:17:53.441Z,14.30
2018-05-21T05:20:21.308Z,14.40
2018-05-21T05:22:49.174Z,14.40
2018-05-21T05:25:17.041Z,14.40
2018-05-21T05:27:44.908Z,14.40
2018-05-21T05:30:12.774Z,14.50
2018-05-21T05:32:40.641Z,14.60
2018-05-21T05:35:08.507Z,14.60
2018-05-21T05:37:36.300Z,14.70
2018-05-21T05:40:04.164Z,14.70
2018-05-21T05:42:32.004Z,14.90
2018-05-21T05:44:59.977Z,14.90
2018-05-21T05:47:27.731Z,15.00
2018-05-21T05:49:55.604Z,15.10
2018-05-21T05:52:23.477Z,15.20
2018-05-21T05:54:51.337Z,15.30
2018-05-21T05:57:19.204Z,15.40
2018-05-21T05:59:47.069Z,15.50
2018-05-21T06:02:14.861Z,15.60
2018-05-21T06:04:43.520Z,15.90
2018-05-21T06:07:11.386Z,15.80
2018-05-21T06:09:39.355Z,16.00
2018-05-21T06:12:07.222Z,16.10
2018-05-21T06:14:35.088Z,16.20
2018-05-21T06:17:03.030Z,16.40
2018-05-21T06:19:30.848Z,16.60
2018-05-21T06:22:00.149Z,17.10
2018-05-21T06:24:28.090Z,17.10
2018-05-21T06:26:55.958Z,17.30
2018-05-21T06:29:23.833Z,17.40
2018-05-21T06:31:51.687Z,17.50
2018-05-21T06:34:19.585Z,17.70
2018-05-21T06:36:48.243Z,17.90
2018-05-21T06:39:16.314Z,17.90
2018-05-21T06:41:44.180Z,17.90
2018-05-21T06:44:12.047Z,18.00
2018-05-21T06:46:39.914Z,18.20
2018-05-21T06:49:07.673Z,18.40
2018-05-21T06:51:35.644Z,18.80
2018-05-21T06:54:04.229Z,22.50
2018-05-21T06:56:32.096Z,22.40
2018-05-21T06:58:59.962Z,24.50
2018-05-21T07:01:27.857Z,26.50
2018-05-21T07:03:55.696Z,27.40
2018-05-21T07:06:23.564Z,28.20
2018-05-21T07:08:51.428Z,28.70
2018-05-21T07:11:19.295Z,29.30
2018-05-21T07:13:47.161Z,29.80
2018-05-21T07:16:15.027Z,30.10
2018-05-21T07:18:42.820Z,30.70
2018-05-21T07:21:10.760Z,31.20
2018-05-21T07:23:38.624Z,31.20
2018-05-21T07:26:06.494Z,31.80
2018-05-21T07:28:34.283Z,32.00
2018-05-21T07:31:02.124Z,31.80
2018-05-21T07:33:29.991Z,32.00
2018-05-21T07:35:57.857Z,32.80
2018-05-21T07:38:25.649Z,32.90
2018-05-21T07:40:53.590Z,32.00
2018-05-21T07:43:21.457Z,32.40
2018-05-21T07:45:49.325Z,32.70
2018-05-21T07:48:17.189Z,32.60
2018-05-21T07:50:45.057Z,32.70
2018-05-21T07:53:13.025Z,32.40
2018-05-21T07:55:40.892Z,32.20
2018-05-21T07:58:09.638Z,32.60
2018-05-21T08:00:38.264Z,33.70
2018-05-21T08:03:06.131Z,33.60
2018-05-21T08:05:33.998Z,34.40
2018-05-21T08:08:01.788Z,34.70
2018-05-21T08:10:29.627Z,34.30
2018-05-21T08:12:57.391Z,34.60
2018-05-21T08:15:25.360Z,34.70
2018-05-21T08:17:53.223Z,35.00
2018-05-21T08:20:21.023Z,35.30
2018-05-21T08:22:48.966Z,35.60
2018-05-21T08:25:16.826Z,36.10
2018-05-21T08:27:44.694Z,36.00
2018-05-21T08:30:12.561Z,36.10
2018-05-21T08:32:40.425Z,35.50
2018-05-21T08:35:08.293Z,35.70
2018-05-21T08:37:36.158Z,36.10
2018-05-21T08:40:04.342Z,35.40
2018-05-21T08:42:32.199Z,35.40
2018-05-21T08:45:00.065Z,36.00
2018-05-21T08:47:27.857Z,36.20
2018-05-21T08:49:55.798Z,36.20
2018-05-21T08:52:23.675Z,36.40
2018-05-21T08:54:51.456Z,36.70
2018-05-21T08:57:19.372Z,36.50
2018-05-21T08:59:47.264Z,36.40
2018-05-21T09:02:15.083Z,36.90
2018-05-21T09:04:43.828Z,37.90
2018-05-21T09:07:11.684Z,37.80
2018-05-21T09:09:39.550Z,37.00
2018-05-21T09:12:08.235Z,36.70
2018-05-21T09:14:36.033Z,36.70
2018-05-21T09:17:03.980Z,35.90
2018-05-21T09:19:31.835Z,35.90
2018-05-21T09:21:59.630Z,36.10
2018-05-21T09:24:27.564Z,36.50
2018-05-21T09:26:56.515Z,36.60
2018-05-21T09:29:24.383Z,36.20
2018-05-21T09:31:52.152Z,36.80
2018-05-21T09:34:19.921Z,36.70
2018-05-21T09:36:47.743Z,37.30
2018-05-21T09:39:15.610Z,36.90
2018-05-21T09:41:43.381Z,36.10
2018-05-21T09:44:11.133Z,35.60
2018-05-21T09:46:39.645Z,35.70
2018-05-21T09:49:08.333Z,35.10
2018-05-21T09:51:36.880Z,34.90
2018-05-21T09:54:05.037Z,34.90
2018-05-21T09:56:32.906Z,34.30
2018-05-21T09:59:00.696Z,34.40
2018-05-21T10:01:28.566Z,34.10
2018-05-21T10:03:56.405Z,34.30
2018-05-21T10:06:24.244Z,34.60
2018-05-21T10:08:52.063Z,34.80
2018-05-21T10:11:20.134Z,34.70
2018-05-21T10:13:47.910Z,34.30
2018-05-21T10:16:16.458Z,34.20
2018-05-21T10:18:44.206Z,34.20
2018-05-21T10:21:11.969Z,34.10
2018-05-21T10:23:39.725Z,33.60
2018-05-21T10:26:07.594Z,32.70
2018-05-21T10:28:35.281Z,31.60
2018-05-21T10:31:03.036Z,30.80
2018-05-21T10:33:30.810Z,30.10
2018-05-21T10:35:58.565Z,29.80
2018-05-21T10:38:26.322Z,29.40
2018-05-21T10:40:54.069Z,28.80
2018-05-21T10:43:21.829Z,28.40
2018-05-21T10:45:49.601Z,28.30
2018-05-21T10:48:17.348Z,28.00
2018-05-21T10:50:45.133Z,27.80
2018-05-21T10:53:12.914Z,27.60
2018-05-21T10:55:40.670Z,27.30
2018-05-21T10:58:08.462Z,27.00
2018-05-21T11:00:37.014Z,26.70
2018-05-21T11:03:04.840Z,26.70
2018-05-21T11:05:33.376Z,26.60
2018-05-21T11:08:01.168Z,26.60
2018-05-21T11:10:28.927Z,26.60
2018-05-21T11:12:56.721Z,26.40
2018-05-21T11:15:25.236Z,26.50
2018-05-21T11:17:54.666Z,26.50
2018-05-21T11:20:22.393Z,26.60
2018-05-21T11:22:50.139Z,26.60
2018-05-21T11:25:17.889Z,26.60
2018-05-21T11:27:46.410Z,26.30
2018-05-21T11:30:14.177Z,26.30
2018-05-21T11:32:41.948Z,26.30
2018-05-21T11:35:09.701Z,26.30
2018-05-21T11:37:37.454Z,26.30
2018-05-21T11:40:05.230Z,26.20
2018-05-21T11:42:32.988Z,26.10
2018-05-21T11:45:00.753Z,26.00
2018-05-21T11:47:28.501Z,25.80
2018-05-21T11:49:56.254Z,26.00
2018-05-21T11:52:24.786Z,25.90
2018-05-21T11:54:52.753Z,25.90
2018-05-21T11:57:20.620Z,25.80
2018-05-21T11:59:48.487Z,25.60
2018-05-21T12:02:16.284Z,25.40
2018-05-21T12:04:44.818Z,25.20
2018-05-21T12:07:12.589Z,25.10
2018-05-21T12:09:40.361Z,25.00
2018-05-21T12:12:08.125Z,24.80
2018-05-21T12:14:35.993Z,24.90
2018-05-21T12:17:04.337Z,25.00
2018-05-21T12:19:32.241Z,25.20
2018-05-21T12:22:00.113Z,25.30
2018-05-21T12:24:27.896Z,25.20
2018-05-21T12:26:56.090Z,25.10
2018-05-21T12:29:24.809Z,24.60
2018-05-21T12:31:52.568Z,24.50
2018-05-21T12:34:20.322Z,24.50
2018-05-21T12:36:48.781Z,24.30
2018-05-21T12:39:17.358Z,24.10
2018-05-21T12:41:45.933Z,24.10
2018-05-21T12:44:14.482Z,24.10
2018-05-21T12:46:42.246Z,23.90
2018-05-21T12:49:10.001Z,23.90
2018-05-21T12:51:37.769Z,23.90
2018-05-21T12:54:05.646Z,23.90
2018-05-21T12:56:33.514Z,23.70
2018-05-21T12:59:01.382Z,23.80
2018-05-21T13:01:29.137Z,23.80
2018-05-21T13:03:57.523Z,23.80
2018-05-21T13:06:25.390Z,23.80
2018-05-21T13:08:53.181Z,23.70
2018-05-21T13:11:20.944Z,23.70
2018-05-21T13:13:48.962Z,23.60
2018-05-21T13:16:17.573Z,23.90
2018-05-21T13:18:45.322Z,23.90
2018-05-21T13:21:13.077Z,24.20
2018-05-21T13:23:40.836Z,24.40
2018-05-21T13:26:08.632Z,24.40
2018-05-21T13:28:36.396Z,24.50
2018-05-21T13:31:04.225Z,24.60
2018-05-21T13:33:32.234Z,24.50
2018-05-21T13:36:00.197Z,24.40
2018-05-21T13:38:27.998Z,24.20
2018-05-21T13:40:56.522Z,23.90
2018-05-21T13:43:24.440Z,23.90
2018-05-21T13:45:52.196Z,23.80
2018-05-21T13:48:19.975Z,23.60
2018-05-21T13:50:48.498Z,23.30
2018-05-21T13:53:16.541Z,23.30
2018-05-21T13:55:45.647Z,22.90
2018-05-21T13:58:13.397Z,22.90
2018-05-21T14:00:41.908Z,22.60
2018-05-21T14:03:09.654Z,22.60
2018-05-21T14:05:38.561Z,22.40
2018-05-21T14:08:06.600Z,22.40
2018-05-21T14:10:35.469Z,22.30
2018-05-21T14:13:03.228Z,22.30
2018-05-21T14:15:31.025Z,22.20
2018-05-21T14:17:59.548Z,22.10
2018-05-21T14:20:27.311Z,22.10
2018-05-21T14:22:55.064Z,22.10
2018-05-21T14:25:22.855Z,22.10
2018-05-21T14:27:50.637Z,22.10
2018-05-21T14:30:18.384Z,22.10
2018-05-21T14:32:46.137Z,22.10
2018-05-21T14:35:13.898Z,22.00
2018-05-21T14:37:41.661Z,22.00
2018-05-21T14:40:09.417Z,21.90
2018-05-21T14:42:37.169Z,21.90
2018-05-21T14:45:04.949Z,21.70
2018-05-21T14:47:32.692Z,21.60
2018-05-21T14:50:00.460Z,21.60
2018-05-21T14:52:28.204Z,21.70
2018-05-21T14:54:56.736Z,21.60
2018-05-21T14:57:24.499Z,21.60
2018-05-21T14:59:52.253Z,21.60
2018-05-21T15:02:20.008Z,21.60
2018-05-21T15:04:47.761Z,21.50
2018-05-21T15:07:15.525Z,21.50
2018-05-21T15:09:43.276Z,21.60
2018-05-21T15:12:11.795Z,21.70
2018-05-21T15:14:39.551Z,21.70
2018-05-21T15:17:07.337Z,21.70
2018-05-21T15:19:35.144Z,21.70
2018-05-21T15:22:02.929Z,21.70
2018-05-21T15:24:30.681Z,21.70
2018-05-21T15:26:59.196Z,21.80
2018-05-21T15:29:26.987Z,21.80
2018-05-21T15:31:54.733Z,21.80
2018-05-21T15:34:22.481Z,21.70
2018-05-21T15:36:50.232Z,21.70
2018-05-21T15:39:17.971Z,21.70
2018-05-21T15:41:46.485Z,21.70
2018-05-21T15:44:14.237Z,21.70
2018-05-21T15:46:42.017Z,21.70
2018-05-21T15:49:09.777Z,21.80
2018-05-21T15:51:37.562Z,21.80
2018-05-21T15:54:05.436Z,21.80
2018-05-21T15:56:33.302Z,21.80
2018-05-21T15:59:01.169Z,21.80
2018-05-21T16:01:29.035Z,21.80
2018-05-21T16:03:57.723Z,21.60
2018-05-21T16:06:25.589Z,21.60
2018-05-21T16:08:53.454Z,21.60
2018-05-21T16:11:21.219Z,21.60
2018-05-21T16:13:49.085Z,21.50
2018-05-21T16:16:16.833Z,21.40
2018-05-21T16:18:44.649Z,21.30
2018-05-21T16:21:13.432Z,21.20
2018-05-21T16:23:41.181Z,21.20
2018-05-21T16:26:08.948Z,21.20
2018-05-21T16:28:36.763Z,21.00
2018-05-21T16:31:04.545Z,21.00
2018-05-21T16:33:32.297Z,20.90
2018-05-21T16:36:00.062Z,20.80
2018-05-21T16:38:27.814Z,20.60
2018-05-21T16:40:55.569Z,20.60
2018-05-21T16:43:24.609Z,20.50
2018-05-21T16:45:52.886Z,20.40
2018-05-21T16:48:20.720Z,20.40
2018-05-21T16:50:48.724Z,20.40
2018-05-21T16:53:18.329Z,20.20
2018-05-21T16:55:46.196Z,20.20
2018-05-21T16:58:13.989Z,20.20
2018-05-21T17:00:41.929Z,20.20
2018-05-21T17:03:10.206Z,20.20
2018-05-21T17:05:38.869Z,20.20
2018-05-21T17:08:06.764Z,20.20
2018-05-21T17:10:35.125Z,20.20
2018-05-21T17:13:02.900Z,20.30
2018-05-21T17:15:31.101Z,20.30
2018-05-21T17:17:59.146Z,20.30
2018-05-21T17:20:28.241Z,20.40
2018-05-21T17:22:56.210Z,20.30
2018-05-21T17:25:25.100Z,20.30
2018-05-21T17:27:53.398Z,20.30
2018-05-21T17:30:22.153Z,20.30
2018-05-21T17:32:50.468Z,20.30
2018-05-21T17:35:18.236Z,20.30
2018-05-21T17:37:46.505Z,20.30
2018-05-21T17:40:15.169Z,20.20
2018-05-21T17:42:43.781Z,20.20
2018-05-21T17:45:11.551Z,20.20
2018-05-21T17:47:40.506Z,20.10
2018-05-21T17:50:09.412Z,20.10
2018-05-21T17:52:37.326Z,20.10
2018-05-21T17:55:05.161Z,20.00
2018-05-21T17:57:33.816Z,19.80
2018-05-21T18:00:01.684Z,19.80
2018-05-21T18:02:29.550Z,19.70
2018-05-21T18:04:57.332Z,19.70
2018-05-21T18:07:25.216Z,19.60
2018-05-21T18:09:53.765Z,19.30
2018-05-21T18:12:21.631Z,19.30
2018-05-21T18:14:49.497Z,19.20
2018-05-21T18:17:17.569Z,19.10
2018-05-21T18:19:45.538Z,19.00
2018-05-21T18:22:13.285Z,18.90
2018-05-21T18:24:41.169Z,18.80
2018-05-21T18:27:08.960Z,18.70
2018-05-21T18:29:37.615Z,18.60
2018-05-21T18:32:05.416Z,18.50
2018-05-21T18:34:33.352Z,18.40
2018-05-21T18:37:01.219Z,18.30
2018-05-21T18:39:29.086Z,18.30
2018-05-21T18:41:56.844Z,18.20
2018-05-21T18:44:24.716Z,18.00
2018-05-21T18:46:52.478Z,18.00
2018-05-21T18:49:20.265Z,17.90
2018-05-21T18:51:48.245Z,17.80
2018-05-21T18:54:16.339Z,17.70
2018-05-21T18:56:46.099Z,17.60
2018-05-21T18:59:14.674Z,17.50
2018-05-21T19:01:42.463Z,17.50
2018-05-21T19:04:10.301Z,17.50
2018-05-21T19:06:38.059Z,17.50
2018-05-21T19:09:05.943Z,17.40
2018-05-21T19:11:33.809Z,17.40
2018-05-21T19:14:02.290Z,17.40
2018-05-21T19:16:30.338Z,17.40
2018-05-21T19:18:58.116Z,17.40
2018-05-21T19:21:25.861Z,17.40
2018-05-21T19:23:53.610Z,17.30
2018-05-21T19:26:21.361Z,17.30
2018-05-21T19:28:49.886Z,17.40
2018-05-21T19:31:17.637Z,17.30
2018-05-21T19:33:45.530Z,17.30
2018-05-21T19:36:13.322Z,17.30
2018-05-21T19:38:41.267Z,17.30
2018-05-21T19:41:09.129Z,17.30
2018-05-21T19:43:37.816Z,17.20
2018-05-21T19:46:05.685Z,17.20
2018-05-21T19:48:33.653Z,17.20
2018-05-21T19:51:01.519Z,17.20
2018-05-21T19:53:30.357Z,17.10
2018-05-21T19:55:59.213Z,17.00
2018-05-21T19:58:26.978Z,17.00
2018-05-21T20:00:54.801Z,17.00
2018-05-21T20:03:22.565Z,16.90
2018-05-21T20:05:50.331Z,16.90
2018-05-21T20:08:18.092Z,16.80
2018-05-21T20:10:45.885Z,16.80
2018-05-21T20:13:13.627Z,16.70
2018-05-21T20:15:41.371Z,16.70
2018-05-21T20:18:09.129Z,16.70
2018-05-21T20:20:42.581Z,16.60
2018-05-21T20:23:10.371Z,16.60
2018-05-21T20:25:38.904Z,16.60
2018-05-21T20:28:06.665Z,16.50
2018-05-21T20:30:34.413Z,16.50
2018-05-21T20:33:02.173Z,16.50
2018-05-21T20:35:29.935Z,16.50
2018-05-21T20:37:57.722Z,16.40
2018-05-21T20:40:25.476Z,16.40
2018-05-21T20:42:53.267Z,16.40
2018-05-21T20:45:21.047Z,16.30
2018-05-21T20:47:48.813Z,16.30
2018-05-21T20:50:16.573Z,16.30
2018-05-21T20:52:44.873Z,16.20
2018-05-21T20:55:13.553Z,16.20
2018-05-21T20:57:42.314Z,16.10
2018-05-21T21:00:11.202Z,16.10
2018-05-21T21:02:39.071Z,16.10
2018-05-21T21:05:06.936Z,16.10
2018-05-21T21:07:34.769Z,16.10
2018-05-21T21:10:03.452Z,16.00
2018-05-21T21:12:32.583Z,16.00
2018-05-21T21:15:00.655Z,16.00
2018-05-21T21:17:29.441Z,15.90
2018-05-21T21:19:57.221Z,15.90
2018-05-21T21:22:25.440Z,15.90
2018-05-21T21:24:53.193Z,15.90
2018-05-21T21:27:21.766Z,15.90
2018-05-21T21:29:50.293Z,15.80
2018-05-21T21:32:18.577Z,15.80
2018-05-21T21:34:46.366Z,15.80
2018-05-21T21:37:14.130Z,15.80
2018-05-21T21:39:41.879Z,15.70
2018-05-21T21:42:10.035Z,15.70
2018-05-21T21:44:38.008Z,15.70
2018-05-21T21:47:06.861Z,15.70
2018-05-21T21:49:35.379Z,15.60
2018-05-21T21:52:03.145Z,15.60
2018-05-21T21:54:30.930Z,15.60
2018-05-21T21:56:59.121Z,15.60
2018-05-21T21:59:27.202Z,15.60
2018-05-21T22:01:55.854Z,15.70
2018-05-21T22:04:24.028Z,15.70
2018-05-21T22:06:52.332Z,15.70
2018-05-21T22:09:20.109Z,15.70
2018-05-21T22:11:48.629Z,15.80
2018-05-21T22:14:16.576Z,15.80
2018-05-21T22:16:46.257Z,15.90
2018-05-21T22:19:14.839Z,16.00
2018-05-21T22:21:43.496Z,16.00
2018-05-21T22:24:12.592Z,15.90
2018-05-21T22:26:41.381Z,16.00
2018-05-21T22:29:09.173Z,16.00
2018-05-21T22:31:38.547Z,15.90
2018-05-21T22:34:06.345Z,15.90
2018-05-21T22:36:34.997Z,15.90
2018-05-21T22:39:02.965Z,15.90
2018-05-21T22:41:30.832Z,16.00
2018-05-21T22:43:58.700Z,16.00
2018-05-21T22:46:26.565Z,15.90
2018-05-21T22:48:54.535Z,16.00
2018-05-21T22:51:22.341Z,16.00
2018-05-21T22:53:50.985Z,15.90
2018-05-21T22:56:18.777Z,15.80
2018-05-21T22:58:47.434Z,15.90
2018-05-21T23:01:15.301Z,15.90
2018-05-21T23:03:43.167Z,15.90
2018-05-21T23:06:11.034Z,15.90
2018-05-21T23:08:38.900Z,15.80
2018-05-21T23:11:06.692Z,15.80
2018-05-21T23:13:35.635Z,15.70
2018-05-21T23:16:03.525Z,15.70
2018-05-21T23:18:31.392Z,15.70
2018-05-21T23:20:59.259Z,15.70
2018-05-21T23:23:27.124Z,15.70
2018-05-21T23:25:54.991Z,15.70
2018-05-21T23:28:22.857Z,15.70
2018-05-21T23:30:50.648Z,15.70
2018-05-21T23:33:19.202Z,15.70
2018-05-21T23:35:46.998Z,15.70
2018-05-21T23:38:15.655Z,15.60
2018-05-21T23:40:43.520Z,15.60
2018-05-21T23:43:11.383Z,15.60
2018-05-21T23:45:39.255Z,15.60
2018-05-21T23:48:08.144Z,15.50
2018-05-21T23:50:36.011Z,15.50
2018-05-21T23:53:03.877Z,15.50
2018-05-21T23:55:31.744Z,15.40
2018-05-21T23:57:59.536Z,15.40
